sensor_id;sensor_type;location;lat;lon;timestamp;pressure;altitude;pressure_sealevel;temperature;humidity
74659;BME280;63186;51.204;6.536;2024-03-23T00:55:10;100581.31;;;5.75;100.00
74659;BME280;63186;51.204;6.536;2024-03-23T00:57:36;100579.22;;;5.61;100.00
74659;BME280;63186;51.204;6.536;2024-03-23T01:00:01;100597.81;;;5.54;100.00
74659;BME280;63186;51.204;6.536;2024-03-23T01:02:27;100593.75;;;5.47;100.00
74659;BME280;63186;51.204;6.536;2024-03-23T01:04:52;100587.22;;;5.42;100.00
74659;BME280;63186;51.204;6.536;2024-03-23T01:07:18;100594.63;;;5.37;100.00
74659;BME280;63186;51.204;6.536;2024-03-23T01:09:43;100594.31;;;5.38;100.00
74659;BME280;63186;51.204;6.536;2024-03-23T01:12:09;100585.91;;;5.35;100.00
74659;BME280;63186;51.204;6.536;2024-03-23T01:14:34;100590.00;;;5.32;100.00
74659;BME280;63186;51.204;6.536;2024-03-23T01:17:01;100581.28;;;5.30;100.00
74659;BME280;63186;51.204;6.536;2024-03-23T01:19:26;100582.09;;;5.31;100.00
74659;BME280;63186;51.204;6.536;2024-03-23T01:21:52;100566.25;;;5.28;100.00
74659;BME280;63186;51.204;6.536;2024-03-23T01:24:17;100578.84;;;5.24;100.00
74659;BME280;63186;51.204;6.536;2024-03-23T01:26:42;100581.56;;;5.24;100.00
74659;BME280;63186;51.204;6.536;2024-03-23T01:29:08;100575.31;;;5.23;100.00
74659;BME280;63186;51.204;6.536;2024-03-23T01:31:33;100568.75;;;5.19;100.00
74659;BME280;63186;51.204;6.536;2024-03-23T01:33:58;100572.31;;;5.20;100.00
74659;BME280;63186;51.204;6.536;2024-03-23T01:36:24;100573.13;;;5.20;100.00
74659;BME280;63186;51.204;6.536;2024-03-23T01:38:49;100565.22;;;5.18;100.00
74659;BME280;63186;51.204;6.536;2024-03-23T01:41:14;100570.41;;;5.15;100.00
74659;BME280;63186;51.204;6.536;2024-03-23T01:43:40;100577.22;;;5.17;100.00
74659;BME280;63186;51.204;6.536;2024-03-23T01:46:06;100576.94;;;5.19;100.00
74659;BME280;63186;51.204;6.536;2024-03-23T01:48:32;100569.03;;;5.17;100.00
74659;BME280;63186;51.204;6.536;2024-03-23T01:50:58;100557.59;;;5.15;100.00
74659;BME280;63186;51.204;6.536;2024-03-23T01:53:24;100559.50;;;5.15;100.00
74659;BME280;63186;51.204;6.536;2024-03-23T01:55:50;100547.50;;;5.16;100.00
74659;BME280;63186;51.204;6.536;2024-03-23T01:58:16;100548.31;;;5.16;100.00
74659;BME280;63186;51.204;6.536;2024-03-23T02:00:41;100545.03;;;5.14;100.00
74659;BME280;63186;51.204;6.536;2024-03-23T02:03:28;100545.03;;;5.14;100.00
74659;BME280;63186;51.204;6.536;2024-03-23T02:05:54;100541.50;;;5.14;100.00
74659;BME280;63186;51.204;6.536;2024-03-23T02:08:20;100534.69;;;5.16;100.00
74659;BME280;63186;51.204;6.536;2024-03-23T02:10:47;100540.94;;;5.17;100.00
74659;BME280;63186;51.204;6.536;2024-03-23T02:13:14;100527.03;;;5.13;100.00
74659;BME280;63186;51.204;6.536;2024-03-23T02:15:39;100532.47;;;5.18;100.00
74659;BME280;63186;51.204;6.536;2024-03-23T02:18:06;100531.94;;;5.22;100.00
74659;BME280;63186;51.204;6.536;2024-03-23T02:20:32;100531.34;;;5.25;100.00
74659;BME280;63186;51.204;6.536;2024-03-23T02:22:57;100532.75;;;5.22;100.00
74659;BME280;63186;51.204;6.536;2024-03-23T02:25:22;100529.75;;;5.18;100.00
74659;BME280;63186;51.204;6.536;2024-03-23T02:27:48;100540.38;;;5.15;100.00
74659;BME280;63186;51.204;6.536;2024-03-23T02:30:13;100528.94;;;5.13;100.00
74659;BME280;63186;51.204;6.536;2024-03-23T02:32:38;100516.13;;;5.13;100.00
74659;BME280;63186;51.204;6.536;2024-03-23T02:35:04;100512.59;;;5.08;100.00
74659;BME280;63186;51.204;6.536;2024-03-23T02:37:30;100524.63;;;5.02;100.00
74659;BME280;63186;51.204;6.536;2024-03-23T02:39:55;100531.19;;;5.01;100.00
74659;BME280;63186;51.204;6.536;2024-03-23T02:42:20;100532.00;;;5.01;100.00
74659;BME280;63186;51.204;6.536;2024-03-23T02:44:46;100540.75;;;5.03;100.00
74659;BME280;63186;51.204;6.536;2024-03-23T02:47:11;100542.09;;;5.06;100.00
74659;BME280;63186;51.204;6.536;2024-03-23T02:49:36;100535.53;;;5.07;100.00
74659;BME280;63186;51.204;6.536;2024-03-23T02:52:02;100537.44;;;5.01;100.00
74659;BME280;63186;51.204;6.536;2024-03-23T02:54:27;100539.09;;;5.02;100.00
74659;BME280;63186;51.204;6.536;2024-03-23T02:56:53;100539.38;;;5.01;100.00
74659;BME280;63186;51.204;6.536;2024-03-23T02:59:18;100525.19;;;5.04;100.00
74659;BME280;63186;51.204;6.536;2024-03-23T03:01:43;100525.41;;;5.07;100.00
74659;BME280;63186;51.204;6.536;2024-03-23T03:04:09;100533.59;;;5.07;100.00
74659;BME280;63186;51.204;6.536;2024-03-23T03:06:34;100533.38;;;4.99;100.00
74659;BME280;63186;51.204;6.536;2024-03-23T03:08:59;100529.03;;;4.98;100.00
74659;BME280;63186;51.204;6.536;2024-03-23T03:11:24;100512.91;;;5.01;100.00
74659;BME280;63186;51.204;6.536;2024-03-23T03:13:50;100500.63;;;5.04;100.00
74659;BME280;63186;51.204;6.536;2024-03-23T03:16:15;100499.00;;;5.03;100.00
74659;BME280;63186;51.204;6.536;2024-03-23T03:18:41;100504.47;;;5.03;100.00
74659;BME280;63186;51.204;6.536;2024-03-23T03:21:06;100508.25;;;5.02;100.00
74659;BME280;63186;51.204;6.536;2024-03-23T03:23:39;100512.34;;;5.04;100.00
74659;BME280;63186;51.204;6.536;2024-03-23T03:26:05;100523.78;;;5.06;100.00
74659;BME280;63186;51.204;6.536;2024-03-23T03:28:34;100522.16;;;5.05;100.00
74659;BME280;63186;51.204;6.536;2024-03-23T03:31:00;100532.56;;;5.03;100.00
74659;BME280;63186;51.204;6.536;2024-03-23T03:33:27;100529.56;;;5.00;100.00
74659;BME280;63186;51.204;6.536;2024-03-23T03:35:52;100521.66;;;4.98;100.00
74659;BME280;63186;51.204;6.536;2024-03-23T03:38:19;100530.38;;;5.00;100.00
74659;BME280;63186;51.204;6.536;2024-03-23T03:40:44;100526.81;;;5.00;100.00
74659;BME280;63186;51.204;6.536;2024-03-23T03:43:10;100513.50;;;4.93;100.00
74659;BME280;63186;51.204;6.536;2024-03-23T03:45:35;100508.03;;;4.93;100.00
74659;BME280;63186;51.204;6.536;2024-03-23T03:48:01;100517.59;;;4.96;100.00
74659;BME280;63186;51.204;6.536;2024-03-23T03:50:26;100520.84;;;4.98;100.00
74659;BME280;63186;51.204;6.536;2024-03-23T03:52:51;100525.47;;;4.97;100.00
74659;BME280;63186;51.204;6.536;2024-03-23T03:55:17;100523.28;;;4.94;100.00
74659;BME280;63186;51.204;6.536;2024-03-23T03:57:42;100524.94;;;4.95;100.00
74659;BME280;63186;51.204;6.536;2024-03-23T04:00:08;100532.88;;;4.92;100.00
74659;BME280;63186;51.204;6.536;2024-03-23T04:02:37;100535.88;;;4.90;100.00
74659;BME280;63186;51.204;6.536;2024-03-23T04:05:03;100539.13;;;4.92;100.00
74659;BME280;63186;51.204;6.536;2024-03-23T04:07:28;100532.06;;;4.91;100.00
74659;BME280;63186;51.204;6.536;2024-03-23T04:09:53;100534.50;;;4.87;100.00
74659;BME280;63186;51.204;6.536;2024-03-23T04:12:19;100520.06;;;4.87;100.00
74659;BME280;63186;51.204;6.536;2024-03-23T04:14:45;100525.22;;;4.88;100.00
74659;BME280;63186;51.204;6.536;2024-03-23T04:17:10;100522.50;;;4.88;100.00
74659;BME280;63186;51.204;6.536;2024-03-23T04:19:36;100530.69;;;4.88;100.00
74659;BME280;63186;51.204;6.536;2024-03-23T04:22:01;100523.59;;;4.87;100.00
74659;BME280;63186;51.204;6.536;2024-03-23T04:24:26;100519.25;;;4.86;100.00
74659;BME280;63186;51.204;6.536;2024-03-23T04:26:52;100509.97;;;4.82;100.00
74659;BME280;63186;51.204;6.536;2024-03-23T04:29:17;100503.47;;;4.78;100.00
74659;BME280;63186;51.204;6.536;2024-03-23T04:31:43;100509.19;;;4.77;100.00
74659;BME280;63186;51.204;6.536;2024-03-23T04:34:08;100498.03;;;4.73;100.00
74659;BME280;63186;51.204;6.536;2024-03-23T04:36:33;100514.66;;;4.72;100.00
74659;BME280;63186;51.204;6.536;2024-03-23T04:38:59;100507.03;;;4.69;100.00
74659;BME280;63186;51.204;6.536;2024-03-23T04:41:25;100500.47;;;4.75;100.00
74659;BME280;63186;51.204;6.536;2024-03-23T04:43:52;100504.56;;;4.72;100.00
74659;BME280;63186;51.204;6.536;2024-03-23T04:46:17;100509.22;;;4.72;100.00
74659;BME280;63186;51.204;6.536;2024-03-23T04:48:42;100517.69;;;4.70;100.00
74659;BME280;63186;51.204;6.536;2024-03-23T04:51:09;100512.47;;;4.74;100.00
74659;BME280;63186;51.204;6.536;2024-03-23T04:53:37;100514.66;;;4.77;100.00
74659;BME280;63186;51.204;6.536;2024-03-23T04:56:02;100508.09;;;4.78;100.00
74659;BME280;63186;51.204;6.536;2024-03-23T04:58:29;100508.38;;;4.76;100.00
74659;BME280;63186;51.204;6.536;2024-03-23T05:00:55;100513.84;;;4.76;100.00
74659;BME280;63186;51.204;6.536;2024-03-23T05:03:21;100510.03;;;4.77;100.00
74659;BME280;63186;51.204;6.536;2024-03-23T05:05:47;100511.94;;;4.77;100.00
74659;BME280;63186;51.204;6.536;2024-03-23T05:08:14;100511.38;;;4.75;100.00
74659;BME280;63186;51.204;6.536;2024-03-23T05:10:39;100516.81;;;4.75;100.00
74659;BME280;63186;51.204;6.536;2024-03-23T05:13:05;100514.66;;;4.72;100.00
74659;BME280;63186;51.204;6.536;2024-03-23T05:15:31;100513.28;;;4.69;100.00
74659;BME280;63186;51.204;6.536;2024-03-23T05:17:57;100511.94;;;4.67;100.00
74659;BME280;63186;51.204;6.536;2024-03-23T05:20:22;100514.16;;;4.65;100.00
74659;BME280;63186;51.204;6.536;2024-03-23T05:22:48;100506.50;;;4.67;100.00
74659;BME280;63186;51.204;6.536;2024-03-23T05:25:13;100521.22;;;4.71;100.00
74659;BME280;63186;51.204;6.536;2024-03-23T05:27:38;100512.22;;;4.65;100.00
74659;BME280;63186;51.204;6.536;2024-03-23T05:30:04;100504.34;;;4.53;100.00
74659;BME280;63186;51.204;6.536;2024-03-23T05:32:31;100506.28;;;4.53;100.00
74659;BME280;63186;51.204;6.536;2024-03-23T05:34:56;100509.00;;;4.53;100.00
74659;BME280;63186;51.204;6.536;2024-03-23T05:37:22;100520.19;;;4.56;100.00
74659;BME280;63186;51.204;6.536;2024-03-23T05:39:48;100520.72;;;4.58;100.00
74659;BME280;63186;51.204;6.536;2024-03-23T05:42:16;100516.59;;;4.56;100.00
74659;BME280;63186;51.204;6.536;2024-03-23T05:44:45;100513.34;;;4.54;100.00
74659;BME280;63186;51.204;6.536;2024-03-23T05:47:11;100519.38;;;4.46;100.00
74659;BME280;63186;51.204;6.536;2024-03-23T05:49:38;100517.47;;;4.36;100.00
74659;BME280;63186;51.204;6.536;2024-03-23T05:52:03;100515.88;;;4.25;100.00
74659;BME280;63186;51.204;6.536;2024-03-23T05:54:29;100516.41;;;4.17;100.00
74659;BME280;63186;51.204;6.536;2024-03-23T05:56:55;100507.44;;;4.11;100.00
74659;BME280;63186;51.204;6.536;2024-03-23T05:59:21;100518.34;;;4.11;100.00
74659;BME280;63186;51.204;6.536;2024-03-23T06:01:47;100528.16;;;4.07;100.00
74659;BME280;63186;51.204;6.536;2024-03-23T06:04:12;100531.41;;;4.09;100.00
74659;BME280;63186;51.204;6.536;2024-03-23T06:06:39;100540.69;;;4.13;100.00
74659;BME280;63186;51.204;6.536;2024-03-23T06:09:04;100541.19;;;4.10;100.00
74659;BME280;63186;51.204;6.536;2024-03-23T06:11:30;100537.66;;;4.09;100.00
74659;BME280;63186;51.204;6.536;2024-03-23T06:13:55;100539.28;;;4.11;100.00
74659;BME280;63186;51.204;6.536;2024-03-23T06:16:21;100531.94;;;4.16;100.00
74659;BME280;63186;51.204;6.536;2024-03-23T06:18:49;100540.06;;;4.52;100.00
74659;BME280;63186;51.204;6.536;2024-03-23T06:21:15;100546.13;;;5.13;100.00
74659;BME280;63186;51.204;6.536;2024-03-23T06:23:41;100536.69;;;5.84;100.00
74659;BME280;63186;51.204;6.536;2024-03-23T06:26:07;100542.84;;;6.39;100.00
74659;BME280;63186;51.204;6.536;2024-03-23T06:28:32;100546.94;;;6.90;100.00
74659;BME280;63186;51.204;6.536;2024-03-23T06:30:57;100538.22;;;7.68;100.00
74659;BME280;63186;51.204;6.536;2024-03-23T06:33:22;100543.63;;;8.25;100.00
74659;BME280;63186;51.204;6.536;2024-03-23T06:35:52;100534.50;;;8.76;100.00
74659;BME280;63186;51.204;6.536;2024-03-23T06:38:17;100531.75;;;9.03;100.00
74659;BME280;63186;51.204;6.536;2024-03-23T06:40:43;100547.09;;;8.90;100.00
74659;BME280;63186;51.204;6.536;2024-03-23T06:43:13;100538.03;;;9.17;100.00
74659;BME280;63186;51.204;6.536;2024-03-23T06:45:38;100556.94;;;9.46;100.00
74659;BME280;63186;51.204;6.536;2024-03-23T06:48:04;100553.00;;;9.11;100.00
74659;BME280;63186;51.204;6.536;2024-03-23T06:50:29;100556.56;;;9.12;100.00
74659;BME280;63186;51.204;6.536;2024-03-23T06:52:54;100557.00;;;9.55;100.00
74659;BME280;63186;51.204;6.536;2024-03-23T06:55:20;100564.06;;;9.47;100.00
74659;BME280;63186;51.204;6.536;2024-03-23T06:57:45;100561.41;;;9.42;100.00
74659;BME280;63186;51.204;6.536;2024-03-23T07:00:11;100567.66;;;9.20;100.00
74659;BME280;63186;51.204;6.536;2024-03-23T07:02:38;100567.44;;;9.81;100.00
74659;BME280;63186;51.204;6.536;2024-03-23T07:05:04;100571.97;;;10.44;100.00
74659;BME280;63186;51.204;6.536;2024-03-23T07:07:29;100566.31;;;10.71;100.00
74659;BME280;63186;51.204;6.536;2024-03-23T07:09:55;100569.16;;;10.97;100.00
74659;BME280;63186;51.204;6.536;2024-03-23T07:12:20;100575.03;;;11.13;98.05
74659;BME280;63186;51.204;6.536;2024-03-23T07:14:46;100576.25;;;11.29;98.75
74659;BME280;63186;51.204;6.536;2024-03-23T07:17:11;100566.38;;;11.46;97.54
74659;BME280;63186;51.204;6.536;2024-03-23T07:19:36;100564.28;;;11.43;96.86
74659;BME280;63186;51.204;6.536;2024-03-23T07:22:02;100557.16;;;11.41;94.14
74659;BME280;63186;51.204;6.536;2024-03-23T07:24:27;100550.56;;;12.03;94.18
74659;BME280;63186;51.204;6.536;2024-03-23T07:26:52;100551.19;;;12.26;93.37
74659;BME280;63186;51.204;6.536;2024-03-23T07:29:19;100553.66;;;12.74;91.40
74659;BME280;63186;51.204;6.536;2024-03-23T07:31:44;100560.69;;;12.55;89.72
74659;BME280;63186;51.204;6.536;2024-03-23T07:34:10;100551.19;;;11.74;93.98
74659;BME280;63186;51.204;6.536;2024-03-23T07:36:35;100559.28;;;12.31;93.79
74659;BME280;63186;51.204;6.536;2024-03-23T07:39:00;100563.06;;;13.20;88.00
74659;BME280;63186;51.204;6.536;2024-03-23T07:41:26;100566.84;;;13.45;85.21
74659;BME280;63186;51.204;6.536;2024-03-23T07:43:53;100563.38;;;13.48;83.63
74659;BME280;63186;51.204;6.536;2024-03-23T07:46:20;100562.06;;;13.96;81.34
74659;BME280;63186;51.204;6.536;2024-03-23T07:48:45;100564.78;;;14.71;80.23
74659;BME280;63186;51.204;6.536;2024-03-23T07:51:17;100559.84;;;15.38;75.98
74659;BME280;63186;51.204;6.536;2024-03-23T07:53:44;100565.22;;;15.83;74.66
74659;BME280;63186;51.204;6.536;2024-03-23T07:56:11;100567.13;;;15.30;68.44
74659;BME280;63186;51.204;6.536;2024-03-23T07:58:36;100565.38;;;14.89;75.02
74659;BME280;63186;51.204;6.536;2024-03-23T08:01:10;100569.13;;;14.60;69.42
74659;BME280;63186;51.204;6.536;2024-03-23T08:03:37;100566.66;;;13.71;80.36
74659;BME280;63186;51.204;6.536;2024-03-23T08:06:19;100568.50;;;12.53;77.58
74659;BME280;63186;51.204;6.536;2024-03-23T08:08:47;100563.28;;;11.38;82.74
74659;BME280;63186;51.204;6.536;2024-03-23T08:11:12;100573.53;;;10.58;86.86
74659;BME280;63186;51.204;6.536;2024-03-23T08:13:39;100566.56;;;12.44;84.40
74659;BME280;63186;51.204;6.536;2024-03-23T08:16:05;100568.59;;;13.50;78.35
74659;BME280;63186;51.204;6.536;2024-03-23T08:18:30;100562.84;;;14.18;72.88
74659;BME280;63186;51.204;6.536;2024-03-23T08:21:03;100564.94;;;14.21;69.58
74659;BME280;63186;51.204;6.536;2024-03-23T08:23:33;100567.19;;;14.39;72.73
74659;BME280;63186;51.204;6.536;2024-03-23T08:26:04;100574.94;;;14.67;67.90
74659;BME280;63186;51.204;6.536;2024-03-23T08:28:29;100574.06;;;15.24;67.30
74659;BME280;63186;51.204;6.536;2024-03-23T08:30:55;100580.31;;;15.45;64.43
74659;BME280;63186;51.204;6.536;2024-03-23T08:33:22;100573.00;;;13.13;70.19
74659;BME280;63186;51.204;6.536;2024-03-23T08:35:57;100562.81;;;11.54;79.27
74659;BME280;63186;51.204;6.536;2024-03-23T08:38:26;100579.59;;;11.18;83.16
74659;BME280;63186;51.204;6.536;2024-03-23T08:40:58;100575.91;;;10.82;85.89
74659;BME280;63186;51.204;6.536;2024-03-23T08:43:25;100570.13;;;10.62;90.03
74659;BME280;63186;51.204;6.536;2024-03-23T08:45:50;100576.09;;;10.95;86.81
74659;BME280;63186;51.204;6.536;2024-03-23T08:48:15;100570.97;;;11.67;83.14
74659;BME280;63186;51.204;6.536;2024-03-23T08:50:41;100573.31;;;10.86;88.54
74659;BME280;63186;51.204;6.536;2024-03-23T08:53:06;100571.69;;;10.09;91.38
74659;BME280;63186;51.204;6.536;2024-03-23T08:55:32;100575.78;;;9.25;94.56
74659;BME280;63186;51.204;6.536;2024-03-23T08:57:57;100572.84;;;8.94;100.00
74659;BME280;63186;51.204;6.536;2024-03-23T09:00:22;100567.19;;;8.58;98.69
74659;BME280;63186;51.204;6.536;2024-03-23T09:02:48;100573.53;;;8.73;100.00
74659;BME280;63186;51.204;6.536;2024-03-23T09:05:13;100565.81;;;9.16;98.93
74659;BME280;63186;51.204;6.536;2024-03-23T09:07:38;100581.47;;;9.15;98.04
74659;BME280;63186;51.204;6.536;2024-03-23T09:10:04;100582.38;;;9.38;98.61
74659;BME280;63186;51.204;6.536;2024-03-23T09:12:30;100569.63;;;9.92;96.61
74659;BME280;63186;51.204;6.536;2024-03-23T09:14:55;100572.13;;;9.80;93.05
74659;BME280;63186;51.204;6.536;2024-03-23T09:17:20;100573.66;;;9.22;97.57
74659;BME280;63186;51.204;6.536;2024-03-23T09:19:46;100562.75;;;8.62;96.85
74659;BME280;63186;51.204;6.536;2024-03-23T09:22:11;100575.22;;;8.22;98.57
74659;BME280;63186;51.204;6.536;2024-03-23T09:24:36;100568.63;;;8.56;100.00
74659;BME280;63186;51.204;6.536;2024-03-23T09:27:02;100559.34;;;9.62;94.94
74659;BME280;63186;51.204;6.536;2024-03-23T09:29:28;100554.75;;;9.57;89.18
74659;BME280;63186;51.204;6.536;2024-03-23T09:31:53;100549.53;;;9.06;88.65
74659;BME280;63186;51.204;6.536;2024-03-23T09:34:19;100571.41;;;10.95;89.18
74659;BME280;63186;51.204;6.536;2024-03-23T09:36:44;100565.31;;;12.16;77.53
74659;BME280;63186;51.204;6.536;2024-03-23T09:39:10;100566.63;;;10.70;75.96
74659;BME280;63186;51.204;6.536;2024-03-23T09:41:35;100567.09;;;11.03;76.18
74659;BME280;63186;51.204;6.536;2024-03-23T09:44:01;100569.22;;;12.06;75.51
74659;BME280;63186;51.204;6.536;2024-03-23T09:46:27;100553.34;;;13.44;68.77
74659;BME280;63186;51.204;6.536;2024-03-23T09:48:55;100566.31;;;12.75;65.16
74659;BME280;63186;51.204;6.536;2024-03-23T09:51:21;100565.13;;;13.82;70.37
74659;BME280;63186;51.204;6.536;2024-03-23T09:53:46;100560.53;;;15.10;64.70
74659;BME280;63186;51.204;6.536;2024-03-23T09:56:11;100556.47;;;14.71;62.33
74659;BME280;63186;51.204;6.536;2024-03-23T09:58:37;100553.91;;;15.52;63.17
74659;BME280;63186;51.204;6.536;2024-03-23T10:01:02;100550.72;;;16.02;62.04
74659;BME280;63186;51.204;6.536;2024-03-23T10:03:28;100546.47;;;15.92;57.64
74659;BME280;63186;51.204;6.536;2024-03-23T10:06:03;100548.94;;;16.38;56.38
74659;BME280;63186;51.204;6.536;2024-03-23T10:08:30;100552.41;;;14.02;60.72
74659;BME280;63186;51.204;6.536;2024-03-23T10:10:56;100581.72;;;14.03;62.33
74659;BME280;63186;51.204;6.536;2024-03-23T10:13:25;100585.72;;;11.63;62.91
74659;BME280;63186;51.204;6.536;2024-03-23T10:15:56;100571.38;;;9.38;73.75
74659;BME280;63186;51.204;6.536;2024-03-23T10:18:22;100564.41;;;8.12;82.69
74659;BME280;63186;51.204;6.536;2024-03-23T10:21:10;100560.03;;;7.35;89.30
74659;BME280;63186;51.204;6.536;2024-03-23T10:23:38;100557.63;;;7.10;91.82
74659;BME280;63186;51.204;6.536;2024-03-23T10:26:19;100546.72;;;6.86;92.48
74659;BME280;63186;51.204;6.536;2024-03-23T10:28:54;100576.75;;;6.91;95.45
74659;BME280;63186;51.204;6.536;2024-03-23T10:31:20;100556.72;;;6.96;95.98
74659;BME280;63186;51.204;6.536;2024-03-23T10:33:47;100589.19;;;7.02;93.33
74659;BME280;63186;51.204;6.536;2024-03-23T10:36:13;100598.69;;;6.86;92.44
74659;BME280;63186;51.204;6.536;2024-03-23T10:38:43;100608.25;;;6.31;98.78
74659;BME280;63186;51.204;6.536;2024-03-23T10:41:10;100607.41;;;5.96;100.00
74659;BME280;63186;51.204;6.536;2024-03-23T10:43:36;100613.53;;;5.72;100.00
74659;BME280;63186;51.204;6.536;2024-03-23T10:46:02;100608.19;;;5.52;100.00
74659;BME280;63186;51.204;6.536;2024-03-23T10:48:27;100602.69;;;5.57;100.00
74659;BME280;63186;51.204;6.536;2024-03-23T10:50:53;100594.16;;;5.74;100.00
74659;BME280;63186;51.204;6.536;2024-03-23T10:53:19;100587.47;;;5.90;100.00
74659;BME280;63186;51.204;6.536;2024-03-23T10:55:46;100585.84;;;5.89;100.00
74659;BME280;63186;51.204;6.536;2024-03-23T10:58:11;100582.50;;;6.03;100.00
74659;BME280;63186;51.204;6.536;2024-03-23T11:00:38;100582.59;;;6.27;100.00
74659;BME280;63186;51.204;6.536;2024-03-23T11:03:35;100582.13;;;6.48;100.00
74659;BME280;63186;51.204;6.536;2024-03-23T11:06:04;100576.25;;;6.60;100.00
74659;BME280;63186;51.204;6.536;2024-03-23T11:08:32;100574.81;;;6.68;100.00
74659;BME280;63186;51.204;6.536;2024-03-23T11:11:17;100578.38;;;6.92;100.00
74659;BME280;63186;51.204;6.536;2024-03-23T11:13:42;100561.63;;;7.79;100.00
74659;BME280;63186;51.204;6.536;2024-03-23T11:18:40;100571.91;;;8.72;98.36
74659;BME280;63186;51.204;6.536;2024-03-23T11:21:07;100568.66;;;8.83;96.79
74659;BME280;63186;51.204;6.536;2024-03-23T11:23:32;100554.13;;;8.96;94.67
74659;BME280;63186;51.204;6.536;2024-03-23T11:25:57;100549.53;;;9.06;95.25
74659;BME280;63186;51.204;6.536;2024-03-23T11:28:23;100536.41;;;9.16;92.89
74659;BME280;63186;51.204;6.536;2024-03-23T11:30:48;100538.00;;;9.45;94.86
74659;BME280;63186;51.204;6.536;2024-03-23T11:33:13;100546.47;;;9.85;93.52
74659;BME280;63186;51.204;6.536;2024-03-23T11:35:40;100543.59;;;10.12;86.50
74659;BME280;63186;51.204;6.536;2024-03-23T11:38:18;100560.97;;;9.63;81.94
74659;BME280;63186;51.204;6.536;2024-03-23T11:40:50;100549.41;;;7.91;89.67
74659;BME280;63186;51.204;6.536;2024-03-23T11:43:19;100564.16;;;7.14;98.83
74659;BME280;63186;51.204;6.536;2024-03-23T11:45:47;100579.47;;;7.15;100.00
74659;BME280;63186;51.204;6.536;2024-03-23T11:48:16;100561.72;;;7.13;100.00
74659;BME280;63186;51.204;6.536;2024-03-23T11:50:45;100558.13;;;7.17;100.00
74659;BME280;63186;51.204;6.536;2024-03-23T11:53:17;100561.66;;;7.18;100.00
74659;BME280;63186;51.204;6.536;2024-03-23T11:55:49;100555.59;;;7.21;100.00
74659;BME280;63186;51.204;6.536;2024-03-23T11:58:16;100563.81;;;7.21;100.00
74659;BME280;63186;51.204;6.536;2024-03-23T12:00:42;100565.03;;;7.10;100.00
74659;BME280;63186;51.204;6.536;2024-03-23T12:03:08;100569.22;;;7.02;100.00
74659;BME280;63186;51.204;6.536;2024-03-23T12:05:36;100558.84;;;7.23;100.00
74659;BME280;63186;51.204;6.536;2024-03-23T12:08:30;100570.06;;;7.64;100.00
74659;BME280;63186;51.204;6.536;2024-03-23T12:11:10;100583.66;;;8.26;100.00
74659;BME280;63186;51.204;6.536;2024-03-23T12:13:36;100564.94;;;8.28;98.48
74659;BME280;63186;51.204;6.536;2024-03-23T12:16:10;100558.69;;;8.08;100.00
74659;BME280;63186;51.204;6.536;2024-03-23T12:18:36;100558.44;;;7.72;99.55
74659;BME280;63186;51.204;6.536;2024-03-23T12:21:02;100553.75;;;7.35;100.00
74659;BME280;63186;51.204;6.536;2024-03-23T12:23:28;100562.94;;;7.01;99.19
74659;BME280;63186;51.204;6.536;2024-03-23T12:25:53;100571.00;;;6.93;100.00
74659;BME280;63186;51.204;6.536;2024-03-23T12:28:18;100563.25;;;7.00;100.00
74659;BME280;63186;51.204;6.536;2024-03-23T12:30:44;100555.28;;;7.22;100.00
74659;BME280;63186;51.204;6.536;2024-03-23T12:33:09;100550.03;;;7.50;98.08
74659;BME280;63186;51.204;6.536;2024-03-23T12:35:34;100556.16;;;7.79;95.29
74659;BME280;63186;51.204;6.536;2024-03-23T12:38:00;100549.38;;;8.09;93.63
74659;BME280;63186;51.204;6.536;2024-03-23T12:40:25;100546.69;;;8.56;93.15
74659;BME280;63186;51.204;6.536;2024-03-23T12:42:52;100548.41;;;8.79;90.14
74659;BME280;63186;51.204;6.536;2024-03-23T12:45:17;100544.97;;;9.01;91.62
74659;BME280;63186;51.204;6.536;2024-03-23T12:47:42;100546.91;;;9.01;88.59
74659;BME280;63186;51.204;6.536;2024-03-23T12:50:08;100545.38;;;9.08;88.94
74659;BME280;63186;51.204;6.536;2024-03-23T12:52:35;100543.31;;;9.41;89.89
74659;BME280;63186;51.204;6.536;2024-03-23T12:55:00;100538.78;;;9.59;89.73
74659;BME280;63186;51.204;6.536;2024-03-23T12:57:26;100580.03;;;9.32;87.11
74659;BME280;63186;51.204;6.536;2024-03-23T12:59:52;100593.69;;;8.16;93.01
74659;BME280;63186;51.204;6.536;2024-03-23T13:02:21;100575.53;;;6.78;100.00
74659;BME280;63186;51.204;6.536;2024-03-23T13:04:51;100559.53;;;6.04;100.00
74659;BME280;63186;51.204;6.536;2024-03-23T13:07:17;100547.78;;;6.03;100.00
74659;BME280;63186;51.204;6.536;2024-03-23T13:09:43;100537.44;;;6.58;100.00
74659;BME280;63186;51.204;6.536;2024-03-23T13:12:09;100534.81;;;7.20;100.00
74659;BME280;63186;51.204;6.536;2024-03-23T13:14:34;100543.88;;;7.77;100.00
74659;BME280;63186;51.204;6.536;2024-03-23T13:16:59;100527.53;;;8.04;100.00
74659;BME280;63186;51.204;6.536;2024-03-23T13:19:25;100521.81;;;8.01;100.00
74659;BME280;63186;51.204;6.536;2024-03-23T13:21:54;100519.81;;;8.06;100.00
74659;BME280;63186;51.204;6.536;2024-03-23T13:24:23;100525.03;;;8.22;100.00
74659;BME280;63186;51.204;6.536;2024-03-23T13:26:50;100524.03;;;8.31;100.00
74659;BME280;63186;51.204;6.536;2024-03-23T13:29:15;100515.91;;;8.26;98.52
74659;BME280;63186;51.204;6.536;2024-03-23T13:31:41;100518.94;;;7.92;97.95
74659;BME280;63186;51.204;6.536;2024-03-23T13:34:07;100521.34;;;7.61;97.02
74659;BME280;63186;51.204;6.536;2024-03-23T13:36:35;100523.50;;;7.45;99.44
74659;BME280;63186;51.204;6.536;2024-03-23T13:39:02;100519.78;;;7.36;100.00
74659;BME280;63186;51.204;6.536;2024-03-23T13:41:30;100510.00;;;7.49;100.00
74659;BME280;63186;51.204;6.536;2024-03-23T13:43:58;100504.38;;;7.78;100.00
74659;BME280;63186;51.204;6.536;2024-03-23T13:46:24;100506.72;;;8.03;97.66